Aérodrome d'Andernos

LFCD · Gironde, Nouvelle-Aquitaine, Frankreich

METAR-Geschichte LFCD · Aérodrome d'Andernos

Unten siehst du die METARs der letzten paar Tage. Wähle ein Jahr, um ältere METARs ab dem Jahr 2007 zu durchsuchen.

22. April 2024

Uhrzeit Code Wetter Temp. Sichtweite Wolkendecke Wind METAR/SPECI
05:30
V
4 °C 10 km+ - 030° 030° 7 kt METAR LFBC 220330Z AUTO 03007KT CAVOK 04/01 Q1024
05:00
V
4 °C 10 km+ - 030° 030° 7 kt METAR LFBC 220300Z AUTO 03007KT CAVOK 04/00 Q1023
04:30
V
4 °C 10 km+ - 020° 020° 7 kt METAR LFBC 220230Z AUTO 02007KT CAVOK 04/00 Q1023
04:00
V
5 °C 10 km+ - 030° 030° 7 kt METAR LFBC 220200Z AUTO 03007KT CAVOK 05/00 Q1023
03:30
V
6 °C 10 km+ - 030° 030° 7 kt METAR LFBC 220130Z AUTO 03007KT CAVOK 06/00 Q1023
03:00
V
6 °C 10 km+ - 030° 030° 6 kt METAR LFBC 220100Z AUTO 03006KT CAVOK 06/00 Q1024
02:30
V
6 °C 10 km+ - 030° 030° 6 kt METAR LFBC 220030Z AUTO 03006KT CAVOK 06/00 Q1024
02:00
V
5 °C 10 km+ - 020° 020° 6 kt METAR LFBC 220000Z AUTO 02006KT CAVOK 05/01 Q1024
01:30
V
5 °C 10 km+ - 010° 010° 6 kt METAR LFBC 212330Z AUTO 01006KT CAVOK 05/01 Q1024
01:00
V
6 °C 10 km+ - 020° 020° 6 kt METAR LFBC 212300Z AUTO 02006KT CAVOK 06/01 Q1024
00:30
V
6 °C 10 km+ - 020° 020° 6 kt METAR LFBC 212230Z AUTO 02006KT CAVOK 06/01 Q1024
00:00
V
7 °C 10 km+ - 020° 020° 6 kt METAR LFBC 212200Z AUTO 02006KT CAVOK 07/00 Q1023

21. April 2024

Uhrzeit Code Wetter Temp. Sichtweite Wolkendecke Wind METAR/SPECI
23:30
V
8 °C 10 km+ - 020° 020° 6 kt METAR LFBC 212130Z AUTO 02006KT CAVOK 08/01 Q1023
23:00
V
9 °C 10 km+ - 030° 030° 6 kt METAR LFBC 212100Z AUTO 03006KT CAVOK 09/00 Q1023
22:30
V
10 °C 10 km+ - 030° 030° 7 kt METAR LFBC 212030Z AUTO 03007KT CAVOK 10/00 Q1023
22:00
V
10 °C 10 km+ - 030° 030° 7 kt METAR LFBC 212000Z AUTO 03007KT CAVOK 10/01 Q1023
21:30
V
11 °C 10 km+ - 030° 030° 8 kt METAR LFBC 211930Z AUTO 03008KT CAVOK 11/00 Q1022
21:00
V
12 °C 10 km+ - 040° 040° 8 kt METAR LFBC 211900Z AUTO 04008KT CAVOK 12/01 Q1022
20:30
V
12 °C 10 km+ - 040° 040° 11 kt METAR LFBC 211830Z AUTO 04011KT CAVOK 12/01 Q1022
20:00
V
13 °C 10 km+ - 030° 030° 11 kt METAR LFBC 211800Z AUTO 03011KT CAVOK 13/01 Q1021
19:30
V
13 °C 10 km+ - 040° 040° 13 kt METAR LFBC 211730Z AUTO 04013KT CAVOK 13/01 Q1021
19:00
V
14 °C 10 km+ - 030° 030° 15 - 26 kt METAR LFBC 211700Z AUTO 03015G26KT 360V060 CAVOK 14/03 Q1021
18:30
V
15 °C 10 km+ - 040° 040° 14 kt METAR LFBC 211630Z AUTO 04014KT CAVOK 15/02 Q1021
18:00
V
15 °C 10 km+ - 040° 040° 15 kt METAR LFBC 211600Z AUTO 04015KT CAVOK 15/02 Q1021
17:30
V
16 °C 10 km+ - 020° 020° 14 kt METAR LFBC 211530Z AUTO 02014KT 360V060 CAVOK 16/02 Q1021
17:00
V
16 °C 10 km+ - 020° 020° 13 kt METAR LFBC 211500Z AUTO 02013KT 350V060 CAVOK 16/02 Q1021
16:30
V
16 °C 10 km+ - 030° 030° 12 kt METAR LFBC 211430Z AUTO 03012KT 340V060 CAVOK 16/02 Q1021
16:00
V
15 °C 10 km+ - 030° 030° 12 kt METAR LFBC 211400Z AUTO 03012KT 340V070 CAVOK 15/00 Q1021
15:30
V
16 °C 10 km+ - 020° 020° 14 kt METAR LFBC 211330Z AUTO 02014KT CAVOK 16/01 Q1021
15:00
V
16 °C 10 km+ - 020° 020° 13 kt METAR LFBC 211300Z AUTO 02013KT CAVOK 16/01 Q1022 NOSIG
14:30
V
15 °C 10 km+ - 040° 040° 12 kt METAR LFBC 211230Z AUTO 04012KT 360V090 CAVOK 15/00 Q1022 NOSIG
14:00
V
15 °C 10 km+ - 010° 010° 11 kt METAR LFBC 211200Z AUTO 01011KT 340V040 CAVOK 15/02 Q1022 NOSIG
13:30
V
15 °C 10 km+ - 040° 040° 10 kt METAR LFBC 211130Z AUTO 04010KT 360V080 CAVOK 15/02 Q1022 NOSIG
13:00
V
14 °C 10 km+ - 030° 030° 10 kt METAR LFBC 211100Z AUTO 03010KT 350V060 CAVOK 14/02 Q1023
12:30
V
14 °C 10 km+ - 050° 050° 8 kt METAR LFBC 211030Z AUTO 05008KT 010V100 CAVOK 14/02 Q1023
12:00
V
13 °C 10 km+ - 050° 050° 11 kt METAR LFBC 211000Z AUTO 05011KT 020V090 CAVOK 13/01 Q1023
11:30
V
13 °C 10 km+ - 050° 050° 14 kt METAR LFBC 210930Z AUTO 05014KT 020V080 CAVOK 13/01 Q1023
11:00
V
12 °C 10 km+ - 070° 070° 10 kt METAR LFBC 210900Z AUTO 07010KT CAVOK 12/02 Q1023
10:30
V
11 °C 10 km+ - 070° 070° 10 kt METAR LFBC 210830Z AUTO 07010KT CAVOK 11/02 Q1023
10:00
V
10 °C 10 km+ - 070° 070° 8 kt METAR LFBC 210800Z AUTO 07008KT CAVOK 10/02 Q1023
09:30
V
8 °C 10 km+ - 050° 050° 9 kt METAR LFBC 210730Z AUTO 05009KT CAVOK 08/02 Q1023
09:00
V
7 °C 10 km+ - 040° 040° 8 kt METAR LFBC 210700Z AUTO 04008KT CAVOK 07/02 Q1023
08:30
V
6 °C 10 km+ - 040° 040° 8 kt METAR LFBC 210630Z AUTO 04008KT CAVOK 06/01 Q1023
08:00
V
5 °C 10 km+ - 040° 040° 8 kt METAR LFBC 210600Z AUTO 04008KT CAVOK 05/01 Q1023
07:30
V
5 °C 10 km+ - 040° 040° 9 kt METAR LFBC 210530Z AUTO 04009KT CAVOK 05/00 Q1023
07:00
V
4 °C 10 km+ - 040° 040° 8 kt METAR LFBC 210500Z AUTO 04008KT CAVOK 04/00 Q1023
06:30
V
4 °C 10 km+ - 040° 040° 6 kt METAR LFBC 210430Z AUTO 04006KT CAVOK 04/00 Q1023
06:00
V
5 °C 10 km+ - 040° 040° 8 kt METAR LFBC 210400Z AUTO 04008KT CAVOK 05/00 Q1022
05:30
V
5 °C 10 km+ - 040° 040° 8 kt METAR LFBC 210330Z AUTO 04008KT CAVOK 05/00 Q1022
05:00
V
5 °C 10 km+ - 030° 030° 7 kt METAR LFBC 210300Z AUTO 03007KT CAVOK 05/01 Q1022
04:30
V
5 °C 10 km+ - 030° 030° 6 kt METAR LFBC 210230Z AUTO 03006KT CAVOK 05/01 Q1022
04:00
V
6 °C 10 km+ - 030° 030° 7 kt METAR LFBC 210200Z AUTO 03007KT CAVOK 06/01 Q1023
03:30
V
6 °C 10 km+ - 030° 030° 6 kt METAR LFBC 210130Z AUTO 03006KT CAVOK 06/01 Q1023
03:00
V
7 °C 10 km+ - 040° 040° 7 kt METAR LFBC 210100Z AUTO 04007KT CAVOK 07/01 Q1023
02:30
V
7 °C 10 km+ - 040° 040° 6 kt METAR LFBC 210030Z AUTO 04006KT CAVOK 07/01 Q1023
02:00
V
8 °C 10 km+ - 040° 040° 7 kt METAR LFBC 210000Z AUTO 04007KT CAVOK 08/01 Q1023
01:30
V
9 °C 10 km+ - 040° 040° 9 kt METAR LFBC 202330Z AUTO 04009KT CAVOK 09/01 Q1023
01:00
V
9 °C 10 km+ - 040° 040° 9 kt METAR LFBC 202300Z AUTO 04009KT CAVOK 09/01 Q1023
00:30
V
10 °C 10 km+ - 040° 040° 8 kt METAR LFBC 202230Z AUTO 04008KT CAVOK 10/01 Q1023
00:00
V
10 °C 10 km+ - 050° 050° 10 kt METAR LFBC 202200Z AUTO 05010KT CAVOK 10/01 Q1023

20. April 2024

Uhrzeit Code Wetter Temp. Sichtweite Wolkendecke Wind METAR/SPECI
23:30
V
11 °C 10 km+ - 050° 050° 10 kt METAR LFBC 202130Z AUTO 05010KT CAVOK 11/01 Q1023
23:00
V
11 °C 10 km+ - 040° 040° 9 kt METAR LFBC 202100Z AUTO 04009KT CAVOK 11/01 Q1023
22:30
V
12 °C 10 km+ - 040° 040° 9 kt METAR LFBC 202030Z AUTO 04009KT CAVOK 12/02 Q1023
22:00
V
12 °C 10 km+ - 030° 030° 7 kt METAR LFBC 202000Z AUTO 03007KT CAVOK 12/02 Q1022
21:30
V
13 °C 10 km+ - 040° 040° 8 kt METAR LFBC 201930Z AUTO 04008KT CAVOK 13/01 Q1022
21:00
V
14 °C 10 km+ - 050° 050° 9 kt METAR LFBC 201900Z AUTO 05009KT CAVOK 14/01 Q1021
20:30
V
15 °C 10 km+ - 040° 040° 10 kt METAR LFBC 201830Z AUTO 04010KT CAVOK 15/01 Q1021
20:00
V
16 °C 10 km+ - 050° 050° 13 kt METAR LFBC 201800Z AUTO 05013KT CAVOK 16/01 Q1021
19:30
V
17 °C 10 km+ - 050° 050° 12 kt METAR LFBC 201730Z AUTO 05012KT 020V080 CAVOK 17/01 Q1021
19:00
V
17 °C 10 km+ - 040° 040° 13 kt METAR LFBC 201700Z AUTO 04013KT CAVOK 17/00 Q1021
18:30
V
18 °C 10 km+ - 060° 060° 10 kt METAR LFBC 201630Z AUTO 06010KT 020V100 CAVOK 18/01 Q1021
18:00
V
18 °C 10 km+ - 050° 050° 12 kt METAR LFBC 201600Z AUTO 05012KT 020V090 CAVOK 18/01 Q1021
17:30
V
18 °C 10 km+ - 070° 070° 11 - 23 kt METAR LFBC 201530Z AUTO 07011G23KT 040V110 CAVOK 18/01 Q1021
17:00
V
19 °C 10 km+ - 050° 050° 11 kt METAR LFBC 201500Z AUTO 05011KT 020V080 CAVOK 19/02 Q1021
16:30
V
19 °C 10 km+ - 070° 070° 11 kt METAR LFBC 201430Z AUTO 07011KT 040V100 CAVOK 19/03 Q1021
16:00
V
19 °C 10 km+ - 040° 040° 10 kt METAR LFBC 201400Z AUTO 04010KT 310V070 CAVOK 19/03 Q1021
15:30
V
19 °C 10 km+ - 050° 050° 10 kt METAR LFBC 201330Z AUTO 05010KT 360V100 CAVOK 19/04 Q1021
15:00
V
18 °C 10 km+ - 060° 060° 14 kt METAR LFBC 201300Z AUTO 06014KT 030V120 CAVOK 18/04 Q1022
14:30
V
18 °C 10 km+ - 060° 060° 9 kt METAR LFBC 201230Z AUTO 06009KT 330V130 CAVOK 18/05 Q1022
14:00
V
18 °C 10 km+ - 060° 060° 10 kt METAR LFBC 201200Z AUTO 06010KT 020V090 CAVOK 18/05 Q1022
13:30
V
18 °C 10 km+ - 080° 080° 11 kt METAR LFBC 201130Z AUTO 08011KT 050V110 CAVOK 18/05 Q1022
13:00
V
18 °C 10 km+ 4.600 ft 070° 070° 9 kt METAR LFBC 201100Z AUTO 07009KT 040V120 9999 BKN046 18/06 Q1022
12:30
V
17 °C 10 km+ - 060° 060° 10 kt METAR LFBC 201030Z AUTO 06010KT 030V090 9999 FEW045 17/06 Q1022
12:00
V
17 °C 10 km+ - 090° 090° 11 kt METAR LFBC 201000Z AUTO 09011KT 050V110 9999 SCT039 SCT048 17/07 Q1022
11:30
V
16 °C 10 km+ - 080° 080° 9 kt METAR LFBC 200930Z AUTO 08009KT 050V110 CAVOK 16/07 Q1022
11:00
V
15 °C 10 km+ - 060° 060° 9 kt METAR LFBC 200900Z AUTO 06009KT 040V110 CAVOK 15/07 Q1022
10:30
V
15 °C 10 km+ - 080° 080° 7 kt METAR LFBC 200830Z AUTO 08007KT 040V120 CAVOK 15/08 Q1022
10:00
V
13 °C 10 km+ - 070° 070° 8 kt METAR LFBC 200800Z AUTO 07008KT CAVOK 13/08 Q1022
09:30
V
12 °C 10 km+ - 060° 060° 6 kt METAR LFBC 200730Z AUTO 06006KT 030V100 CAVOK 12/08 Q1022
09:00
V
10 °C 10 km+ - 040° 040° 6 kt METAR LFBC 200700Z AUTO 04006KT CAVOK 10/08 Q1022
08:30
V
9 °C 10 km+ - 040° 040° 7 kt METAR LFBC 200630Z AUTO 04007KT CAVOK 09/07 Q1022
08:00
V
8 °C 10 km+ - 030° 030° 4 kt METAR LFBC 200600Z AUTO 03004KT CAVOK 08/07 Q1022
07:30
V
7 °C 10 km+ - 020° 020° 5 kt METAR LFBC 200530Z AUTO 02005KT CAVOK 07/06 Q1021
07:00
V
7 °C 10 km+ - 030° 030° 5 kt METAR LFBC 200500Z AUTO 03005KT CAVOK 07/06 Q1021
06:30
V
7 °C 10 km+ - 020° 020° 5 kt METAR LFBC 200430Z AUTO 02005KT CAVOK 07/06 Q1021
06:00
V
7 °C 10 km+ - 020° 020° 7 kt METAR LFBC 200400Z AUTO 02007KT CAVOK 07/07 Q1021
05:30
V
8 °C 10 km+ - 030° 030° 7 kt METAR LFBC 200330Z AUTO 03007KT CAVOK 08/07 Q1021
05:00
V
7 °C 10 km+ - 030° 030° 6 kt METAR LFBC 200300Z AUTO 03006KT CAVOK 07/07 Q1021
04:30
V
6 °C 10 km+ - 010° 010° 2 kt METAR LFBC 200230Z AUTO 01002KT CAVOK 06/06 Q1021
04:00
V
7 °C 10 km+ - 360° 360° 3 kt METAR LFBC 200200Z AUTO 36003KT CAVOK 07/06 Q1021
03:30
V
7 °C 10 km+ - 360° 360° 2 kt METAR LFBC 200130Z AUTO 36002KT CAVOK 07/05 Q1021
03:00
V
7 °C 10 km+ - 010° 010° 3 kt METAR LFBC 200100Z AUTO 01003KT CAVOK 07/06 Q1021
02:30
V
7 °C 10 km+ - 020° 020° 5 kt METAR LFBC 200030Z AUTO 02005KT CAVOK 07/06 Q1021
02:00
V
8 °C 10 km+ - 020° 020° 4 kt METAR LFBC 200000Z AUTO 02004KT CAVOK 08/06 Q1021
01:30
V
9 °C 10 km+ - 030° 030° 6 kt METAR LFBC 192330Z AUTO 03006KT CAVOK 09/07 Q1021
01:00
V
9 °C 10 km+ - 030° 030° 7 kt METAR LFBC 192300Z AUTO 03007KT CAVOK 09/07 Q1021
00:30
V
9 °C 10 km+ - 020° 020° 6 kt METAR LFBC 192230Z AUTO 02006KT CAVOK 09/06 Q1021
00:00
V
9 °C 10 km+ - 020° 020° 8 kt METAR LFBC 192200Z AUTO 02008KT CAVOK 09/06 Q1021

19. April 2024

Uhrzeit Code Wetter Temp. Sichtweite Wolkendecke Wind METAR/SPECI
23:30
V
9 °C 10 km+ - 020° 020° 7 kt METAR LFBC 192130Z AUTO 02007KT CAVOK 09/05 Q1021
23:00
V
10 °C 10 km+ - 010° 010° 7 kt METAR LFBC 192100Z AUTO 01007KT CAVOK 10/05 Q1021
22:30
V
10 °C 10 km+ - 010° 010° 8 kt METAR LFBC 192030Z AUTO 01008KT CAVOK 10/05 Q1021
22:00
V
11 °C 10 km+ - 360° 360° 6 kt METAR LFBC 192000Z AUTO 36006KT CAVOK 11/05 Q1021
21:30
V
12 °C 10 km+ - 350° 350° 7 kt METAR LFBC 191930Z AUTO 35007KT CAVOK 12/05 Q1020
21:00
V
13 °C 10 km+ - 350° 350° 7 kt METAR LFBC 191900Z AUTO 35007KT CAVOK 13/05 Q1020
20:30
V
14 °C 10 km+ - 350° 350° 7 kt METAR LFBC 191830Z AUTO 35007KT CAVOK 14/05 Q1020
20:00
V
15 °C 10 km+ - 340° 340° 8 kt METAR LFBC 191800Z AUTO 34008KT 310V010 CAVOK 15/05 Q1020
19:30
V
16 °C 10 km+ - 340° 340° 9 kt METAR LFBC 191730Z AUTO 34009KT CAVOK 16/05 Q1020
19:00
V
16 °C 10 km+ - 330° 330° 10 kt METAR LFBC 191700Z AUTO 33010KT CAVOK 16/05 Q1020
18:30
V
17 °C 10 km+ - 330° 330° 11 kt METAR LFBC 191630Z AUTO 33011KT CAVOK 17/06 Q1020
18:00
V
18 °C 10 km+ - 330° 330° 11 kt METAR LFBC 191600Z AUTO 33011KT CAVOK 18/05 Q1020
17:30
V
19 °C 10 km+ - 330° 330° 10 kt METAR LFBC 191530Z AUTO 33010KT 300V360 CAVOK 19/05 Q1020
17:00
V
19 °C 10 km+ - 010° 010° 11 kt METAR LFBC 191500Z AUTO 01011KT 330V030 CAVOK 19/03 Q1020
16:30
V
20 °C 10 km+ - 010° 010° 12 kt METAR LFBC 191430Z AUTO 01012KT 340V050 CAVOK 20/03 Q1020 NOSIG
16:00
V
20 °C 10 km+ - 260° 260° 7 kt METAR LFBC 191400Z AUTO 26007KT 190V360 CAVOK 20/02 Q1021 NOSIG
15:30
V
20 °C 10 km+ - 110° 110° 4 kt METAR LFBC 191330Z AUTO 11004KT 030V160 CAVOK 20/M01 Q1021 NOSIG
15:00
V
20 °C 10 km+ - Var Var 4 kt METAR LFBC 191300Z AUTO VRB04KT CAVOK 20/M03 Q1021 NOSIG
14:30
V
19 °C 10 km+ - 040° 040° 6 kt METAR LFBC 191230Z AUTO 04006KT 340V120 CAVOK 19/00 Q1022 NOSIG
14:00
V
19 °C 10 km+ - 120° 120° 4 kt METAR LFBC 191200Z AUTO 12004KT 060V150 CAVOK 19/01 Q1022 NOSIG
13:30
V
18 °C 10 km+ - 110° 110° 5 kt METAR LFBC 191130Z AUTO 11005KT 030V170 CAVOK 18/01 Q1022 NOSIG
13:00
V
18 °C 10 km+ - 070° 070° 6 kt METAR LFBC 191100Z AUTO 07006KT 360V140 CAVOK 18/01 Q1023 NOSIG
12:30
V
17 °C 10 km+ - 070° 070° 7 kt METAR LFBC 191030Z AUTO 07007KT 360V120 CAVOK 17/02 Q1023 NOSIG
12:00
V
16 °C 10 km+ - 090° 090° 7 kt METAR LFBC 191000Z AUTO 09007KT 050V130 CAVOK 16/02 Q1023 NOSIG
11:30
V
15 °C 10 km+ - 080° 080° 7 kt METAR LFBC 190930Z AUTO 08007KT 030V120 CAVOK 15/01 Q1023 NOSIG
11:00
V
15 °C 10 km+ - 110° 110° 7 kt METAR LFBC 190900Z AUTO 11007KT 070V150 CAVOK 15/02 Q1023 NOSIG
10:30
V
14 °C 10 km+ - 150° 150° 5 kt METAR LFBC 190830Z AUTO 15005KT 120V180 CAVOK 14/03 Q1023 NOSIG
10:00
V
12 °C 10 km+ - 130° 130° 4 kt METAR LFBC 190800Z AUTO 13004KT 090V160 CAVOK 12/03 Q1024 NOSIG
09:30
V
10 °C 10 km+ - 140° 140° 4 kt METAR LFBC 190730Z AUTO 14004KT CAVOK 10/03 Q1024 NOSIG
09:00
V
7 °C 10 km+ - Var Var 1 kt METAR LFBC 190700Z AUTO VRB01KT CAVOK 07/03 Q1024 NOSIG
08:30
V
5 °C 10 km+ - Var Var 2 kt METAR LFBC 190630Z AUTO VRB02KT CAVOK 05/01 Q1024 NOSIG
08:00
V
3 °C 10 km+ - Var Var 2 kt METAR LFBC 190600Z AUTO VRB02KT CAVOK 03/00 Q1024 NOSIG
Eine Änderung melden